AirNav   Everest Fuels
 
 978 users online  

0II9 Winters Airport
Hall, Indiana, USA

GOING TO HALL?


FAA INFORMATION EFFECTIVE 10 SEPTEMBER 2020

Location

FAA Identifier: 0II9
Lat/Long: 39-32-03.1690N 086-34-37.9990W
39-32.052817N 086-34.633317W
39.5342136,-86.5772219
(estimated)
Elevation: 755 ft. / 230 m (estimated)
Variation: 02W (1985)
From city: 2 miles SW of HALL, IN
Time zone: UTC -4 (UTC -5 during Standard Time)
Zip code: 46151

Airport Operations

Airport use: Private use. Permission required prior to landing
Activation date: 07/1982
Control tower: no
ARTCC: INDIANAPOLIS CENTER
FSS: TERRE HAUTE FLIGHT SERVICE STATION
Attendance: UNATNDD
Segmented circle: no

Airport Communications

WX AWOS-3PT at GPC (12 nm NW): 118.125 (765-653-1789)
WX AWOS-3P at 2R2 (14 nm N): 118.025 (317-718-4872)
WX ASOS at IND (17 nm NE): PHONE 317-241-0348

Nearby radio navigation aids

VOR radial/distance  VOR name  Freq  Var
VHPr209/19.4BRICKYARD VORTAC116.3001E
OOMr006/23.5HOOSIER VORTAC110.2002W
TTHr083/31.2TERRE HAUTE VORTAC115.3002E
SHBr259/35.3SHELBYVILLE VOR/DME112.0001E

 
NDB name  Hdg/Dist  Freq  Var  ID
CRAWFORDSVILLE154/31.038804WCFJ -.-. ..-. .---
METROPOLITAN228/34.333803WUMP ..- -- .--.

Airport Services

Runway Information

Runway 18/36

Dimensions: 1600 x 75 ft. / 488 x 23 m
Surface: turf
RUNWAY 18  RUNWAY 36
Traffic pattern: leftleft
Obstructions: 25 ft. pline, 300 ft. from runwaynone

Airport Ownership and Management from official FAA records

Ownership: Privately-owned
Owner: LINDA WINTERS
7999 W MCCLURE RD
MONROVIA, IN 46157
Phone 317-996-3696

Airport Operational Statistics

Aircraft based on the field: 1
Single engine airplanes: 1
    

Additional Remarks

FOR CD CTC INDIANAPOLIS APCH AT 317-227-5743.

Instrument Procedures

There are no published instrument procedures at 0II9.

Some nearby airports with instrument procedures:

KGPC - Putnam County Regional Airport (12 nm NW)
2R2 - Hendricks County Airport-Gordon Graham Field (14 nm N)
KIND - Indianapolis International Airport (17 nm NE)
KEYE - Eagle Creek Airpark (22 nm NE)
KHFY - Indy South Greenwood Airport (23 nm E)
 
Loc | Ops | Rwys | IFR | FBO | Links
Com | Nav | Svcs | Stats | Notes
Area around 0II9 (Winters Airport)
 
Road maps at: MapQuest Bing Google
 
Aerial photo
WARNING: Photo may not be current or correct
Aerial photo of 0II9 (Winters Airport)
Photo by Byron S. Helton
Photo taken 24-May-2013
looking south.

Do you have a better or more recent aerial photo of Winters Airport that you would like to share? If so, please send us your photo.

 
Sectional chart

 
Airport distance calculator
Flying to Winters Airport? Find the distance to fly.

From to 0II9

Sunrise and sunset
Times for 22-Sep-2020
 Local
(UTC-4)
 Zulu
(UTC)
Morning civil twilight07:0911:09
Sunrise07:3611:36
Sunset19:4223:42
Evening civil twilight20:0800:08

Current date and time
Zulu (UTC)  22-Sep-2020 12:04:48
Local (UTC-4)  22-Sep-2020 08:04:48
 
METAR
KGPC 
12nm NW 
221155Z AUTO 00000KT 10SM CLR 08/07 A3028 RMK AO2 TSNO T00820072 10116 20074
KIND 
17nm NE 
221154Z 00000KT 10SM SCT170 SCT250 11/08 A3028 RMK AO2 SLP252 T01060078 10133 20100 53004
KEYE 
22nm NE 
221153Z AUTO 00000KT 10SM CLR 09/07 A3028 RMK AO2 SLP251 T00940072 10117 20083 53004
KBMG 
23nm S 
221153Z 00000KT 3SM BR CLR 08/06 A3028 RMK AO2 SLP253 T00780061 10100 20072 53005
KHFY 
23nm E 
221155Z AUTO 00000KT 10SM CLR 07/06 A3029 RMK AO2 7//// T00660061 10131 20065
TAF
KIND 
17nm NE 
220820Z 2208/2312 15003KT P6SM SCT250 FM221600 23005KT P6SM FEW040 SCT250
NOTAMs
Click for the latest NOTAMs
NOTAMs are issued by the DoD/FAA and will open in a separate window not controlled by AirNav.

 

 
 

Would you like to see your business listed on this page?

 If your business provides an interesting product or service to pilots, flight crews, aircraft, or users of the Winters Airport, you should consider listing it here.  To start the listing process, click on the button below
 
Add a business
 

Other Pages about Winters Airport

www.wintersairport.info
 
Update a link
 
Copyright © AirNav, LLC. All rights reserved. Privacy Policy  Contact